CYLA

Aupaluk Airport

Aupaluk, Quebec, Canada
METAR CYLA 151400Z 31010G15KT 15SM FEW020 BKN060 09/03 A2985 RMK SC1SC4 SLP111
Observed Flight Rules
Aug-15 @ 14:00 UTC (60 minutes ago) Visual Flight Rules
Wind Visibility Clouds
310° at 10 knots
 Gusting to 15 knots
15 miles
  • Few at 2,000' AGL
  • Broken at 6,000' AGL
Temperatures Readings
Current 9°C / 48°F
Dewpoint 3°C / 37°F
Humidity 66%
Altimeter 29.85" Hg
Pressure 1011.1 hPa
Elevation 35
METAR CYLA 151400Z 31010G15KT 15SM FEW020 BKN060 09/03 A2985 RMK SC1SC4 SLP111
Observed Flight Rules
Aug-15 @ 14:00 UTC
(60 minutes ago)
VFR
Wind Visibility
310° at 10 knots
 Gusting to 15 knots
15 miles
Clouds
  • Few at 2,000' AGL
  • Broken at 6,000' AGL
Temperature Dewpoint
9°C / 48°F 3°C / 37°F
Humidity Altimeter Pressure
66% 29.85" Hg 1011.1 hPa